Tables



Date Temperature (°C) Humidity (%) Pressure (mb) Wind Speed (km/h) Wind Direction Light Intensity (Lux) Rainfall (mm)
 2018-01-28 03:24:51  25   90   1000   12   west   100   1.3 
 2018-01-28 02:46:38  29   89   999             
 2018-01-26 02:34:00  35.8   57.9   998.00   0         1.35 
 2018-01-26 02:29:00  36.0   56.7   998.00   0         1.35 
 2018-01-26 02:23:59  36.1   57.7   998.00   0         1.35 
 2018-01-26 02:18:58  35.7   57.9   998.00   0         1.35 
 2018-01-26 02:13:58  35.2   59.5   998.00   0         1.35 
 2018-01-26 02:08:58  34.4   61.5   998.00   0         1.35 
 2018-01-26 01:58:57  34.0   62.6   998.00   0         1.35 
 2018-01-26 01:53:56  33.8   63.9   998.00   0         1.35 
 2018-01-26 01:48:56  33.3   67.3   998.00   0         1.35 
 2018-01-26 01:43:55  32.9   67.1   998.00   0         1.35 
 2018-01-26 01:38:56  32.6   69.6   998.00   0         1.35 
 2018-01-26 01:28:53  32.8   66.5   998.00   0         1.35 
 2018-01-26 01:23:55  33.4   67.8   998.00   0         1.35 
 2018-01-26 01:18:52  32.9   70.9   998.00   0         1.35 
 2018-01-26 01:13:51  32.3   71.9   998.00   0         1.35 
 2018-01-26 01:08:51  32.0   73.7   998.00   0         1.35 
 2018-01-26 01:03:50  31.7   74.8   998.00   0         1.35 
 2018-01-26 00:58:50  31.4   77.9   998.00   0         1.35 
 2018-01-26 00:48:48  30.7   82.4   998.00   0         1.35 
 2018-01-26 00:43:48  30.4   87.9   998.00   0         1.35 
 2018-01-26 00:38:47  29.9   90.3   998.00   0         1.35 
 2018-01-26 00:33:47  29.7   91.0   998.00   0         1.35 
 2018-01-26 00:28:46  29.6   91.7   998.00   0         1.35 
 2018-01-26 00:23:46  29.3   92.7   998.00   0         1.35 
 2018-01-26 00:18:45  28.9   94.2   998.00   0         1.35 
 2018-01-26 00:13:45  28.6   95.7   998.00   0         1.35 
 2018-01-26 00:08:46  28.4   95.8   998.00   0         1.35 
 2018-01-26 00:03:43  28.4   96.1   998.00   0         1.35 
 2018-01-25 23:53:57  28.0   97.7   998.00   0         0.00 
 2018-01-25 23:48:55  27.7   98.5   998.00   0         0.00 
 2018-01-25 23:43:53  27.5   99.8   998.00   0         0.00 
 2018-01-25 23:38:51  27.2   99.9   998.00   0         0.00 
 2018-01-25 23:33:50  27.1   99.9   998.00   0         0.00 
 2018-01-25 23:28:48  26.9   99.9   998.00   0         0.00 
 2018-01-25 23:23:46  26.7   99.9   998.00   0         0.00 
 2018-01-25 23:13:43  26.3   99.9   997.00   0         0.00 
 2018-01-25 23:08:41  26.2   99.9   997.00   0         0.00 
 2018-01-25 23:03:39  26.0   99.9   997.00   0         0.00 
 2018-01-25 22:58:38  25.9   99.9   997.00   0         0.00 
 2018-01-25 22:53:23  25.7   99.9   997.00   0         1.35 
 2018-01-25 22:48:22  25.6   99.9   997.00   0         1.35 
 2018-01-25 22:43:24  25.5   99.9   997.00   0         1.35 
 2018-01-25 22:38:21  25.4   99.9   997.00   0         1.35 
 2018-01-25 22:33:21  25.4   99.9   997.00   0         1.35 
 2018-01-25 22:28:20  25.3   99.9   997.00   0         1.35 
 2018-01-25 22:23:19  25.2   99.9   997.00   0         1.35 
 2018-01-25 22:18:19  25.1   99.9   997.00   0         1.35 
 2018-01-25 22:13:18  25.0   99.9   997.00   0         1.35 
 2018-01-25 22:08:19  25.0   99.9   997.00   0         1.35 
 2018-01-25 22:03:17  25.0   99.9   997.00   0         1.35 
 2018-01-25 21:58:17  25.1   99.9   997.00   0         1.35 
 2018-01-25 21:53:16  25.2   99.9   997.00   0         1.35 
 2018-01-25 21:48:16  25.1   99.9   996.00   0         1.35 
 2018-01-25 21:43:15  25.1   99.9   996.00   0         1.35 
 2018-01-25 21:38:14  25.1   99.9   996.00   0         1.35 
 2018-01-25 21:33:14  25.1   99.9   996.00   0         1.35 
 2018-01-25 21:28:13  25.1   99.9   996.00   0         1.35 
 2018-01-25 21:23:13  25.1   99.9   996.00   0         1.35 
 2018-01-25 21:18:12  25.2   99.9   996.00   0         1.35 
 2018-01-25 21:13:12  25.2   99.9   996.00   0         1.35 
 2018-01-25 21:08:11  25.3   99.9   996.00   0         1.35 
 2018-01-25 21:03:10  25.3   99.9   996.00   0         1.35 
 2018-01-25 20:53:09  25.3   99.9   996.00   0         1.35 
 2018-01-25 20:48:09  25.4   99.9   996.00   0         1.35 
 2018-01-25 20:43:08  25.4   99.9   996.00   0         1.35 
 2018-01-25 20:38:07  25.4   99.9   996.00   0         1.35 
 2018-01-25 20:33:07  25.4   99.9   996.00   0         1.35 
 2018-01-25 20:28:06  25.4   99.9   996.00   0         1.35 
 2018-01-25 20:23:06  25.5   99.9   996.00   0         1.35 
 2018-01-25 20:18:08  25.5   99.9   996.00   0         1.35 
 2018-01-25 20:13:04  25.5   99.9   996.00   0         1.35 
 2018-01-25 20:08:04  25.5   99.9   996.00   0         1.35 
 2018-01-25 20:03:03  25.6   99.9   996.00   0         1.35 
 2018-01-25 19:53:02  25.5   99.9   996.00   0         1.35 
 2018-01-25 19:48:01  25.6   99.9   996.00   0         1.35 
 2018-01-25 19:38:00  25.6   99.9   996.00   0         1.35 
 2018-01-25 19:33:00  25.7   99.9   996.00   0         1.35 
 2018-01-25 19:22:59  25.7   99.9   996.00   0         1.35 
 2018-01-25 19:12:58  25.7   99.9   996.00   0         1.35 
 2018-01-25 19:07:57  25.7   99.9   996.00   0         1.35 
 2018-01-25 19:02:57  25.7   99.9   996.00   0         1.35 
 2018-01-25 18:57:56  25.7   99.9   996.00   0         1.35 
 2018-01-25 18:47:55  25.7   99.9   996.00   0         1.35 
 2018-01-25 18:42:54  25.7   99.9   996.00   0         1.35 
 2018-01-25 18:37:54  25.7   99.9   996.00   0         1.35 
 2018-01-25 18:32:53  25.8   99.9   996.00   0         1.35 
 2018-01-25 18:27:53  25.7   99.9   996.00   0         1.35 
 2018-01-25 18:22:52  25.7   99.9   996.00   0         1.35 
 2018-01-25 18:17:51  25.7   99.9   996.00   0         1.35 
 2018-01-25 18:12:52  25.7   99.9   996.00   0         1.35 
 2018-01-25 18:07:50  25.6   99.9   996.00   0         1.35 
 2018-01-25 18:02:50  25.7   99.9   996.00   0         1.35 
 2018-01-25 17:57:50  25.7   99.9   996.00   0         1.35 
 2018-01-25 17:47:48  25.7   99.9   996.00   0         1.35 
 2018-01-25 17:42:48  25.7   99.9   996.00   0         1.35 
 2018-01-25 17:37:47  25.6   99.9   997.00   0         1.35 
 2018-01-25 17:27:46  25.6   99.9   997.00   0         1.35 
 2018-01-25 17:22:46  25.6   99.9   997.00   0         1.35